Terminal Aerodrome Forecast
Issued by NWS Wakefield, VA

Home | Current Version | Previous Version | Text Only | Print | Product List | Glossary On
Versions: 1 2 3 4 5 6 7 8 9 10 11 12 13 14 15 16 17 18 19 20 21 22 23 24 25 26 27 28 29 30 31 32 33 34
000
FTUS41 KAKQ 201406 AAD
TAFORF
TAF AMD
KORF 201406Z 2014/2112 26003KT 1/4SM FG VV002
     FM201500 21005KT 3/4SM BR OVC003
     FM201600 22006KT 3SM BR OVC004
     FM201800 22007KT P6SM BKN010
     FM201900 22007KT P6SM SCT020 BKN035
     FM210400 19008KT 6SM BR SCT050
     FM210900 20007KT 4SM BR SCT150=

USA.gov is the U.S. government's official web portal to all federal, state and local government web resources and services.